createdAt,value
2018-03-24T00:02:14.290Z,64.27
2018-03-24T00:04:42.663Z,69.37
2018-03-24T00:07:10.204Z,70.17
2018-03-24T00:09:37.758Z,73.57
2018-03-24T00:12:06.101Z,69.60
2018-03-24T00:14:33.640Z,75.28
2018-03-24T00:17:01.172Z,72.40
2018-03-24T00:19:28.744Z,76.40
2018-03-24T00:21:56.384Z,67.60
2018-03-24T00:24:23.920Z,66.80
2018-03-24T00:26:51.860Z,71.30
2018-03-24T00:29:19.404Z,71.30
2018-03-24T00:31:46.944Z,74.30
2018-03-24T00:34:25.423Z,78.25
2018-03-24T00:39:38.385Z,78.40
2018-03-24T00:42:05.952Z,74.57
2018-03-24T00:44:33.504Z,71.63
2018-03-24T00:47:01.128Z,82.07
2018-03-24T00:49:28.664Z,78.50
2018-03-24T00:51:56.208Z,74.53
2018-03-24T00:54:23.778Z,74.97
2018-03-24T00:56:51.720Z,75.40
2018-03-24T00:59:19.884Z,81.50
2018-03-24T01:01:47.461Z,70.32
2018-03-24T01:04:17.182Z,75.10
2018-03-24T01:06:44.728Z,74.77
2018-03-24T01:09:12.655Z,75.37
2018-03-24T01:11:40.241Z,74.83
2018-03-24T01:14:07.797Z,77.83
2018-03-24T01:16:35.404Z,77.23
2018-03-24T01:19:02.946Z,79.43
2018-03-24T01:21:30.511Z,78.70
2018-03-24T01:23:58.228Z,85.20
2018-03-24T02:47:00.907Z,76.90
2018-03-24T02:49:28.448Z,85.62
2018-03-24T02:51:56.006Z,75.30
2018-03-24T02:54:23.589Z,79.87
2018-03-24T02:56:51.143Z,83.80
2018-03-24T02:59:18.680Z,75.47
2018-03-24T03:01:46.269Z,81.47
2018-03-24T03:04:16.362Z,87.90
2018-03-24T03:06:43.913Z,80.97
2018-03-24T03:09:11.961Z,82.47
2018-03-24T03:11:39.533Z,86.67
2018-03-24T03:14:07.079Z,92.63
2018-03-24T03:16:35.413Z,86.27
2018-03-24T03:19:02.958Z,89.93
2018-03-24T03:21:42.436Z,87.17
2018-03-24T03:24:09.978Z,95.50
2018-03-24T03:26:37.519Z,91.57
2018-03-24T03:29:05.412Z,94.40
2018-03-24T03:31:32.952Z,98.30
2018-03-24T03:34:00.497Z,97.10
2018-03-24T03:36:28.060Z,94.68
2018-03-24T03:38:55.609Z,90.90
2018-03-24T03:41:23.174Z,91.60
2018-03-24T03:43:50.751Z,84.07
2018-03-24T03:46:18.294Z,98.85
2018-03-24T03:48:46.068Z,87.13
2018-03-24T03:51:15.970Z,93.93
2018-03-24T03:53:43.512Z,84.65
2018-03-24T03:56:11.055Z,87.60
2018-03-24T03:58:39.419Z,99.33
2018-03-24T04:01:06.957Z,98.30
2018-03-24T04:03:34.510Z,104.12
2018-03-24T04:06:02.097Z,113.80
2018-03-24T04:08:29.648Z,103.93
2018-03-24T04:10:57.196Z,102.10
2018-03-24T04:13:24.999Z,107.83
2018-03-24T04:15:52.549Z,111.47
2018-03-24T04:18:20.869Z,99.28
2018-03-24T04:20:48.486Z,112.18
2018-03-24T04:23:16.441Z,103.65
2018-03-24T04:25:44.038Z,114.50
2018-03-24T04:28:11.626Z,112.20
2018-03-24T04:30:39.175Z,110.93
2018-03-24T04:33:06.721Z,113.03
2018-03-24T04:35:34.365Z,121.23
2018-03-24T04:38:02.677Z,119.23
2018-03-24T04:40:30.231Z,116.40
2018-03-24T04:42:57.819Z,116.97
2018-03-24T04:45:25.367Z,119.27
2018-03-24T04:47:52.916Z,122.97
2018-03-24T04:50:20.999Z,129.06
2018-03-24T04:52:48.547Z,134.30
2018-03-24T04:55:17.355Z,122.85
2018-03-24T04:57:45.423Z,119.80
2018-03-24T05:00:23.702Z,109.42
2018-03-24T05:05:22.407Z,121.77
2018-03-24T05:07:50.712Z,123.93
2018-03-24T05:10:19.172Z,119.23
2018-03-24T05:12:46.809Z,122.40
2018-03-24T05:15:16.364Z,129.25
2018-03-24T05:17:43.908Z,112.77
2018-03-24T05:20:11.497Z,106.90
2018-03-24T05:22:39.032Z,119.53
2018-03-24T05:25:06.588Z,112.17
2018-03-24T05:27:34.157Z,113.33
2018-03-24T05:30:01.704Z,113.07
2018-03-24T05:32:29.258Z,110.33
2018-03-24T05:34:57.583Z,99.87
2018-03-24T05:37:25.124Z,105.40
2018-03-24T05:39:52.747Z,94.47
2018-03-24T05:42:20.325Z,88.53
2018-03-24T05:44:47.869Z,98.07
2018-03-24T05:47:17.204Z,92.83
2018-03-24T05:49:44.780Z,85.67
2018-03-24T05:52:12.608Z,84.30
2018-03-24T05:54:40.152Z,94.37
2018-03-24T05:57:08.075Z,83.57
2018-03-24T05:59:35.621Z,83.10
2018-03-24T06:02:03.176Z,78.60
2018-03-24T06:04:30.941Z,75.63
2018-03-24T06:06:58.479Z,72.85
2018-03-24T06:09:26.016Z,78.67
2018-03-24T06:11:54.384Z,73.87
2018-03-24T06:14:22.288Z,67.65
2018-03-24T06:16:49.916Z,75.90
2018-03-24T06:19:17.692Z,75.47
2018-03-24T06:21:46.046Z,65.70
2018-03-24T06:24:25.455Z,72.87
2018-03-24T06:26:53.056Z,63.60
2018-03-24T06:29:20.609Z,64.10
2018-03-24T06:31:54.039Z,64.97
2018-03-24T06:34:21.656Z,63.57
2018-03-24T06:39:48.688Z,59.83
2018-03-24T06:42:17.656Z,65.28
2018-03-24T06:44:46.045Z,61.30
2018-03-24T06:47:15.359Z,58.20
2018-03-24T06:49:42.942Z,62.20
2018-03-24T06:52:10.496Z,62.78
2018-03-24T06:54:38.963Z,61.77
2018-03-24T06:57:07.310Z,62.37
2018-03-24T06:59:35.683Z,64.83
2018-03-24T07:02:03.996Z,58.80
2018-03-24T07:04:31.568Z,61.17
2018-03-24T07:06:59.127Z,55.67
2018-03-24T07:09:26.668Z,58.67
2018-03-24T07:11:54.267Z,51.70
2018-03-24T07:14:21.804Z,44.27
2018-03-24T07:16:49.341Z,42.23
2018-03-24T07:19:17.466Z,41.23
2018-03-24T07:21:45.018Z,37.67
2018-03-24T07:24:12.565Z,37.00
2018-03-24T07:26:40.137Z,34.33
2018-03-24T07:29:07.689Z,36.43
2018-03-24T07:31:35.315Z,35.03
2018-03-24T07:34:02.892Z,33.90
2018-03-24T07:36:30.470Z,33.60
2018-03-24T07:38:58.023Z,33.70
2018-03-24T07:41:25.939Z,32.42
2018-03-24T07:43:54.292Z,31.50
2018-03-24T07:46:21.879Z,31.40
2018-03-24T07:48:49.472Z,29.20
2018-03-24T07:51:17.051Z,28.70
2018-03-24T07:53:44.653Z,29.13
2018-03-24T07:56:12.715Z,28.70
2018-03-24T07:58:40.308Z,31.03
2018-03-24T08:01:08.645Z,32.17
2018-03-24T08:03:36.640Z,35.30
2018-03-24T08:06:04.199Z,34.97
2018-03-24T08:08:31.756Z,34.67
2018-03-24T08:10:59.377Z,38.73
2018-03-24T08:13:26.954Z,34.20
2018-03-24T08:15:54.579Z,33.60
2018-03-24T13:03:13.360Z,29.87
2018-03-24T13:05:40.906Z,34.17
2018-03-24T13:08:08.488Z,33.25
2018-03-24T13:10:36.668Z,31.13
2018-03-24T13:13:04.408Z,35.03
2018-03-24T13:15:32.005Z,34.43
2018-03-24T13:17:59.645Z,31.93
2018-03-24T13:20:27.216Z,30.17
2018-03-24T13:22:54.784Z,28.90
2018-03-24T13:25:22.836Z,29.07
2018-03-24T13:27:50.420Z,34.42
2018-03-24T13:30:17.982Z,30.70
2018-03-24T13:32:45.608Z,27.25
2018-03-24T13:35:27.768Z,31.70
2018-03-24T13:45:00.412Z,28.47
2018-03-24T13:47:27.965Z,29.80
2018-03-24T13:49:55.528Z,30.08
2018-03-24T13:52:23.141Z,32.15
2018-03-24T13:54:51.876Z,32.13
2018-03-24T13:57:19.449Z,35.70
2018-03-24T13:59:47.037Z,34.23
2018-03-24T14:02:26.556Z,36.77
2018-03-24T14:09:40.568Z,40.50
2018-03-24T14:12:08.112Z,39.23
2018-03-24T14:14:35.679Z,36.30
2018-03-24T14:17:03.308Z,38.17
2018-03-24T14:19:30.870Z,33.00
2018-03-24T14:21:58.449Z,40.07
2018-03-24T14:24:26.049Z,39.87
2018-03-24T14:26:53.623Z,35.38
2018-03-24T14:29:21.268Z,39.03
2018-03-24T14:31:48.884Z,34.87
2018-03-24T14:34:17.251Z,40.17
2018-03-24T14:36:44.829Z,37.00
2018-03-24T14:39:12.475Z,35.17
2018-03-24T14:41:40.813Z,33.90
2018-03-24T14:44:09.139Z,36.50
2018-03-24T14:46:36.712Z,38.33
2018-03-24T14:49:04.281Z,35.30
2018-03-24T14:51:31.846Z,36.92
2018-03-24T14:53:59.502Z,36.97
2018-03-24T14:56:27.103Z,42.27
2018-03-24T14:58:54.654Z,37.50
2018-03-24T15:01:22.992Z,36.65
2018-03-24T15:03:50.565Z,34.95
2018-03-24T15:06:18.130Z,35.97
2018-03-24T15:08:45.916Z,35.80
2018-03-24T15:11:25.333Z,36.72
2018-03-24T15:16:28.184Z,33.53
2018-03-24T15:18:55.720Z,36.30
2018-03-24T15:21:23.261Z,35.83
2018-03-24T15:23:50.824Z,33.90
2018-03-24T15:26:18.366Z,36.83
2018-03-24T15:28:57.684Z,43.97
2018-03-24T15:31:37.013Z,36.50
2018-03-24T15:34:16.436Z,32.33
2018-03-24T15:36:44.910Z,31.00
2018-03-24T15:39:12.528Z,32.22
2018-03-24T15:41:40.098Z,37.47
2018-03-24T15:44:07.635Z,40.10
2018-03-24T15:46:35.912Z,31.80
2018-03-24T15:49:03.480Z,31.33
2018-03-24T15:51:31.020Z,34.60
2018-03-24T15:53:58.556Z,36.60
2018-03-24T15:56:26.172Z,31.80
2018-03-24T15:58:53.814Z,34.57
2018-03-24T16:01:21.352Z,34.58
2018-03-24T16:03:48.917Z,38.73
2018-03-24T16:06:16.469Z,65.28
2018-03-24T16:08:44.806Z,41.80
2018-03-24T16:11:12.480Z,34.87
2018-03-24T16:13:40.792Z,33.60
2018-03-24T16:16:09.203Z,34.77
2018-03-24T16:18:36.989Z,37.63
2018-03-24T16:21:04.532Z,35.67
2018-03-24T16:23:32.083Z,34.10
2018-03-24T16:25:59.660Z,31.67
2018-03-24T16:28:27.203Z,35.23
2018-03-24T16:30:54.749Z,31.87
2018-03-24T16:33:22.518Z,32.40
2018-03-24T16:35:50.059Z,37.70
2018-03-24T16:38:17.604Z,35.60
2018-03-24T16:40:45.824Z,35.27
2018-03-24T16:43:14.556Z,36.92
2018-03-24T16:45:42.094Z,33.57
2018-03-24T16:48:09.688Z,30.70
2018-03-24T16:50:38.563Z,37.60
2018-03-24T16:53:06.141Z,34.70
2018-03-24T16:55:33.753Z,38.72
2018-03-24T16:58:01.293Z,36.70
2018-03-24T17:00:28.840Z,34.28
2018-03-24T17:02:56.433Z,40.50
2018-03-24T17:05:23.984Z,35.67
2018-03-24T17:07:51.687Z,36.00
2018-03-24T17:10:20.204Z,38.03
2018-03-24T17:12:48.272Z,38.43
2018-03-24T17:15:17.007Z,37.67
2018-03-24T17:17:46.411Z,36.83
2018-03-24T17:20:24.024Z,36.67
2018-03-24T17:37:13.436Z,39.53
2018-03-24T17:39:43.111Z,37.03
2018-03-24T17:42:12.437Z,35.73
2018-03-24T17:44:41.778Z,44.53
2018-03-24T17:47:09.654Z,37.55
2018-03-24T17:49:39.990Z,36.30
2018-03-24T17:52:07.590Z,42.93
2018-03-24T17:54:35.241Z,38.40
2018-03-24T17:57:04.544Z,39.90
2018-03-24T17:59:32.418Z,34.97
2018-03-24T18:02:08.996Z,36.07
2018-03-24T18:04:37.304Z,34.23
2018-03-24T18:07:05.290Z,36.28
2018-03-24T18:09:33.110Z,35.83
2018-03-24T18:12:03.969Z,38.77
2018-03-24T18:14:31.753Z,52.33
2018-03-24T18:16:59.874Z,32.30
2018-03-24T18:19:28.963Z,35.60
2018-03-24T18:21:56.676Z,38.73
2018-03-24T18:24:24.256Z,34.53
2018-03-24T18:26:51.872Z,34.80
2018-03-24T18:29:22.914Z,31.93
2018-03-24T18:31:51.921Z,37.92
2018-03-24T18:34:21.313Z,36.60
2018-03-24T18:36:49.209Z,39.50
2018-03-24T18:39:17.582Z,40.80
2018-03-24T18:41:45.469Z,42.10
2018-03-24T18:44:25.624Z,35.08
2018-03-24T18:49:32.592Z,34.00
2018-03-24T18:52:00.205Z,37.90
2018-03-24T18:54:27.831Z,34.13
2018-03-24T18:56:55.460Z,35.80
2018-03-24T18:59:23.492Z,36.72
2018-03-24T19:01:52.249Z,35.60
2018-03-24T19:04:19.811Z,35.05
2018-03-24T19:06:48.450Z,35.83
2018-03-24T19:09:17.256Z,33.67
2018-03-24T19:11:45.285Z,40.53
2018-03-24T19:14:14.593Z,34.60
2018-03-24T19:16:42.203Z,32.37
2018-03-24T19:19:10.089Z,43.57
2018-03-24T19:21:37.885Z,36.07
2018-03-24T19:24:05.464Z,38.50
2018-03-24T19:26:33.057Z,38.83
2018-03-24T19:29:00.636Z,46.47
2018-03-24T19:31:28.205Z,45.43
2018-03-24T19:33:56.239Z,34.40
